sensor_id;sensor_type;location;lat;lon;timestamp;temperature;humidity
71175;DHT22;58876;51.994;4.472;2022-10-31T00:02:17;14.17;79.23
71175;DHT22;58876;51.994;4.472;2022-10-31T00:04:42;14.17;79.29
71175;DHT22;58876;51.994;4.472;2022-10-31T00:07:08;14.20;79.15
71175;DHT22;58876;51.994;4.472;2022-10-31T00:09:33;14.20;79.06
71175;DHT22;58876;51.994;4.472;2022-10-31T00:11:59;14.22;79.10
71175;DHT22;58876;51.994;4.472;2022-10-31T00:14:24;14.23;79.04
71175;DHT22;58876;51.994;4.472;2022-10-31T00:16:49;14.19;79.17
71175;DHT22;58876;51.994;4.472;2022-10-31T00:19:15;14.23;79.38
71175;DHT22;58876;51.994;4.472;2022-10-31T00:21:40;14.19;79.49
71175;DHT22;58876;51.994;4.472;2022-10-31T00:24:06;14.17;79.53
71175;DHT22;58876;51.994;4.472;2022-10-31T00:26:33;14.16;79.54
71175;DHT22;58876;51.994;4.472;2022-10-31T00:28:59;14.19;79.58
71175;DHT22;58876;51.994;4.472;2022-10-31T00:31:25;14.08;80.09
71175;DHT22;58876;51.994;4.472;2022-10-31T00:33:50;14.06;80.02
71175;DHT22;58876;51.994;4.472;2022-10-31T00:36:18;14.10;79.82
71175;DHT22;58876;51.994;4.472;2022-10-31T00:38:45;14.06;80.02
71175;DHT22;58876;51.994;4.472;2022-10-31T00:41:14;14.05;79.95
71175;DHT22;58876;51.994;4.472;2022-10-31T00:43:41;14.02;80.01
71175;DHT22;58876;51.994;4.472;2022-10-31T00:46:07;13.99;80.24
71175;DHT22;58876;51.994;4.472;2022-10-31T00:48:33;13.98;80.25
71175;DHT22;58876;51.994;4.472;2022-10-31T00:50:58;13.99;80.11
71175;DHT22;58876;51.994;4.472;2022-10-31T00:53:24;13.99;80.00
71175;DHT22;58876;51.994;4.472;2022-10-31T00:55:49;14.02;80.03
71175;DHT22;58876;51.994;4.472;2022-10-31T00:58:15;14.02;79.78
71175;DHT22;58876;51.994;4.472;2022-10-31T01:00:40;13.95;80.17
71175;DHT22;58876;51.994;4.472;2022-10-31T01:03:06;13.95;79.85
71175;DHT22;58876;51.994;4.472;2022-10-31T01:05:31;13.90;80.06
71175;DHT22;58876;51.994;4.472;2022-10-31T01:07:58;13.88;80.13
71175;DHT22;58876;51.994;4.472;2022-10-31T01:10:23;13.88;80.28
71175;DHT22;58876;51.994;4.472;2022-10-31T01:12:49;13.85;80.55
71175;DHT22;58876;51.994;4.472;2022-10-31T01:15:19;13.85;80.41
71175;DHT22;58876;51.994;4.472;2022-10-31T01:17:44;13.89;80.60
71175;DHT22;58876;51.994;4.472;2022-10-31T01:20:12;13.92;80.49
71175;DHT22;58876;51.994;4.472;2022-10-31T01:22:38;13.94;80.59
71175;DHT22;58876;51.994;4.472;2022-10-31T01:25:05;13.90;80.74
71175;DHT22;58876;51.994;4.472;2022-10-31T01:27:31;13.88;80.61
71175;DHT22;58876;51.994;4.472;2022-10-31T01:29:57;13.81;80.36
71175;DHT22;58876;51.994;4.472;2022-10-31T01:32:22;13.83;80.45
71175;DHT22;58876;51.994;4.472;2022-10-31T01:34:48;13.79;80.48
71175;DHT22;58876;51.994;4.472;2022-10-31T01:37:13;13.78;80.76
71175;DHT22;58876;51.994;4.472;2022-10-31T01:39:39;13.75;81.00
71175;DHT22;58876;51.994;4.472;2022-10-31T01:42:04;13.72;80.48
71175;DHT22;58876;51.994;4.472;2022-10-31T01:47:00;13.64;81.30
71175;DHT22;58876;51.994;4.472;2022-10-31T01:49:46;13.67;81.21
71175;DHT22;58876;51.994;4.472;2022-10-31T01:52:24;13.68;80.89
71175;DHT22;58876;51.994;4.472;2022-10-31T01:57:28;13.54;81.05
71175;DHT22;58876;51.994;4.472;2022-10-31T02:00:00;13.50;81.01
71175;DHT22;58876;51.994;4.472;2022-10-31T02:02:29;13.57;81.46
71175;DHT22;58876;51.994;4.472;2022-10-31T02:04:56;13.47;81.19
71175;DHT22;58876;51.994;4.472;2022-10-31T02:07:37;13.44;80.85
71175;DHT22;58876;51.994;4.472;2022-10-31T02:10:03;13.31;80.43
71175;DHT22;58876;51.994;4.472;2022-10-31T02:12:31;13.14;80.62
71175;DHT22;58876;51.994;4.472;2022-10-31T02:14:59;13.09;80.69
71175;DHT22;58876;51.994;4.472;2022-10-31T02:17:25;13.11;81.36
71175;DHT22;58876;51.994;4.472;2022-10-31T02:25:42;13.10;81.79
71175;DHT22;58876;51.994;4.472;2022-10-31T02:31:32;12.99;81.01
71175;DHT22;58876;51.994;4.472;2022-10-31T02:34:21;12.85;81.13
71175;DHT22;58876;51.994;4.472;2022-10-31T02:36:57;12.82;81.03
71175;DHT22;58876;51.994;4.472;2022-10-31T02:42:21;12.73;80.56
71175;DHT22;58876;51.994;4.472;2022-10-31T02:47:18;12.46;81.02
71175;DHT22;58876;51.994;4.472;2022-10-31T02:52:30;12.44;81.01
71175;DHT22;58876;51.994;4.472;2022-10-31T02:54:55;12.44;80.88
71175;DHT22;58876;51.994;4.472;2022-10-31T02:57:34;12.35;81.10
71175;DHT22;58876;51.994;4.472;2022-10-31T03:00:05;12.28;81.11
71175;DHT22;58876;51.994;4.472;2022-10-31T03:05:23;12.25;81.39
71175;DHT22;58876;51.994;4.472;2022-10-31T03:08:15;12.32;81.91
71175;DHT22;58876;51.994;4.472;2022-10-31T03:10:47;12.44;82.59
71175;DHT22;58876;51.994;4.472;2022-10-31T03:13:39;12.48;82.05
71175;DHT22;58876;51.994;4.472;2022-10-31T03:19:23;12.48;82.76
71175;DHT22;58876;51.994;4.472;2022-10-31T03:22:04;12.49;82.74
71175;DHT22;58876;51.994;4.472;2022-10-31T03:24:37;12.50;83.15
71175;DHT22;58876;51.994;4.472;2022-10-31T03:27:07;12.59;82.88
71175;DHT22;58876;51.994;4.472;2022-10-31T03:29:37;12.52;83.07
71175;DHT22;58876;51.994;4.472;2022-10-31T03:32:22;12.53;82.92
71175;DHT22;58876;51.994;4.472;2022-10-31T03:34:51;12.49;83.02
71175;DHT22;58876;51.994;4.472;2022-10-31T03:37:21;12.52;83.04
71175;DHT22;58876;51.994;4.472;2022-10-31T03:39:49;12.55;82.54
71175;DHT22;58876;51.994;4.472;2022-10-31T03:42:24;12.46;82.62
71175;DHT22;58876;51.994;4.472;2022-10-31T03:45:15;12.46;82.52
71175;DHT22;58876;51.994;4.472;2022-10-31T03:47:42;12.48;82.38
71175;DHT22;58876;51.994;4.472;2022-10-31T03:50:11;12.50;82.35
71175;DHT22;58876;51.994;4.472;2022-10-31T03:55:18;12.48;82.73
71175;DHT22;58876;51.994;4.472;2022-10-31T04:00:51;12.35;82.30
71175;DHT22;58876;51.994;4.472;2022-10-31T04:03:26;12.24;82.36
71175;DHT22;58876;51.994;4.472;2022-10-31T04:05:58;12.13;82.13
71175;DHT22;58876;51.994;4.472;2022-10-31T04:08:28;12.04;82.10
71175;DHT22;58876;51.994;4.472;2022-10-31T04:10:59;11.97;82.26
71175;DHT22;58876;51.994;4.472;2022-10-31T04:13:29;11.94;82.56
71175;DHT22;58876;51.994;4.472;2022-10-31T04:15:55;11.91;82.54
71175;DHT22;58876;51.994;4.472;2022-10-31T04:18:25;11.95;82.73
71175;DHT22;58876;51.994;4.472;2022-10-31T04:21:01;11.97;83.03
71175;DHT22;58876;51.994;4.472;2022-10-31T04:23:27;11.94;82.99
71175;DHT22;58876;51.994;4.472;2022-10-31T04:25:53;11.95;83.07
71175;DHT22;58876;51.994;4.472;2022-10-31T04:28:19;11.93;82.99
71175;DHT22;58876;51.994;4.472;2022-10-31T04:30:44;11.95;82.91
71175;DHT22;58876;51.994;4.472;2022-10-31T04:33:10;11.95;82.44
71175;DHT22;58876;51.994;4.472;2022-10-31T04:35:35;11.90;82.07
71175;DHT22;58876;51.994;4.472;2022-10-31T04:38:01;11.84;82.20
71175;DHT22;58876;51.994;4.472;2022-10-31T04:40:26;11.79;82.27
71175;DHT22;58876;51.994;4.472;2022-10-31T04:42:52;11.73;82.24
71175;DHT22;58876;51.994;4.472;2022-10-31T04:45:17;11.73;82.04
71175;DHT22;58876;51.994;4.472;2022-10-31T04:47:42;11.69;82.01
71175;DHT22;58876;51.994;4.472;2022-10-31T04:50:08;11.69;81.99
71175;DHT22;58876;51.994;4.472;2022-10-31T04:52:42;11.69;81.93
71175;DHT22;58876;51.994;4.472;2022-10-31T04:55:08;11.63;82.09
71175;DHT22;58876;51.994;4.472;2022-10-31T04:57:48;11.60;81.88
71175;DHT22;58876;51.994;4.472;2022-10-31T05:00:17;11.58;81.85
71175;DHT22;58876;51.994;4.472;2022-10-31T05:02:47;11.55;82.67
71175;DHT22;58876;51.994;4.472;2022-10-31T05:05:15;11.53;82.66
71175;DHT22;58876;51.994;4.472;2022-10-31T05:07:42;11.56;82.25
71175;DHT22;58876;51.994;4.472;2022-10-31T05:10:11;11.50;82.01
71175;DHT22;58876;51.994;4.472;2022-10-31T05:12:37;11.50;82.86
71175;DHT22;58876;51.994;4.472;2022-10-31T05:15:04;11.62;83.12
71175;DHT22;58876;51.994;4.472;2022-10-31T05:17:31;11.63;83.28
71175;DHT22;58876;51.994;4.472;2022-10-31T05:19:56;11.67;83.33
71175;DHT22;58876;51.994;4.472;2022-10-31T05:22:22;11.70;83.17
71175;DHT22;58876;51.994;4.472;2022-10-31T05:24:49;11.65;82.99
71175;DHT22;58876;51.994;4.472;2022-10-31T05:27:15;11.62;83.22
71175;DHT22;58876;51.994;4.472;2022-10-31T05:29:40;11.62;83.42
71175;DHT22;58876;51.994;4.472;2022-10-31T05:32:05;11.59;83.29
71175;DHT22;58876;51.994;4.472;2022-10-31T05:34:31;11.62;83.36
71175;DHT22;58876;51.994;4.472;2022-10-31T05:36:56;11.70;83.54
71175;DHT22;58876;51.994;4.472;2022-10-31T05:39:22;11.86;83.98
71175;DHT22;58876;51.994;4.472;2022-10-31T05:41:47;12.01;84.09
71175;DHT22;58876;51.994;4.472;2022-10-31T05:44:12;12.05;83.97
71175;DHT22;58876;51.994;4.472;2022-10-31T05:46:38;12.01;83.02
71175;DHT22;58876;51.994;4.472;2022-10-31T05:49:03;11.93;82.62
71175;DHT22;58876;51.994;4.472;2022-10-31T05:51:29;11.80;82.62
71175;DHT22;58876;51.994;4.472;2022-10-31T05:53:54;11.76;82.86
71175;DHT22;58876;51.994;4.472;2022-10-31T05:56:20;11.76;82.90
71175;DHT22;58876;51.994;4.472;2022-10-31T05:58:45;11.76;82.74
71175;DHT22;58876;51.994;4.472;2022-10-31T06:01:10;11.59;82.53
71175;DHT22;58876;51.994;4.472;2022-10-31T06:03:36;11.59;82.62
71175;DHT22;58876;51.994;4.472;2022-10-31T06:06:02;11.56;82.91
71175;DHT22;58876;51.994;4.472;2022-10-31T06:08:28;11.58;83.09
71175;DHT22;58876;51.994;4.472;2022-10-31T06:10:53;11.69;83.36
71175;DHT22;58876;51.994;4.472;2022-10-31T06:13:19;11.63;83.47
71175;DHT22;58876;51.994;4.472;2022-10-31T06:15:44;11.58;83.50
71175;DHT22;58876;51.994;4.472;2022-10-31T06:18:11;11.55;83.29
71175;DHT22;58876;51.994;4.472;2022-10-31T06:20:36;11.55;83.02
71175;DHT22;58876;51.994;4.472;2022-10-31T06:23:03;11.50;83.11
71175;DHT22;58876;51.994;4.472;2022-10-31T06:25:28;11.53;83.26
71175;DHT22;58876;51.994;4.472;2022-10-31T06:27:54;11.62;83.76
71175;DHT22;58876;51.994;4.472;2022-10-31T06:30:20;11.65;83.71
71175;DHT22;58876;51.994;4.472;2022-10-31T06:32:45;11.65;83.83
71175;DHT22;58876;51.994;4.472;2022-10-31T06:35:11;11.69;83.68
71175;DHT22;58876;51.994;4.472;2022-10-31T06:37:36;11.79;84.47
71175;DHT22;58876;51.994;4.472;2022-10-31T06:40:02;11.98;84.62
71175;DHT22;58876;51.994;4.472;2022-10-31T06:42:28;11.98;84.02
71175;DHT22;58876;51.994;4.472;2022-10-31T06:44:59;12.00;84.02
71175;DHT22;58876;51.994;4.472;2022-10-31T06:47:24;12.04;83.87
71175;DHT22;58876;51.994;4.472;2022-10-31T06:49:50;12.04;83.74
71175;DHT22;58876;51.994;4.472;2022-10-31T06:52:15;12.00;83.39
71175;DHT22;58876;51.994;4.472;2022-10-31T06:54:41;11.91;82.96
71175;DHT22;58876;51.994;4.472;2022-10-31T06:57:06;11.93;83.18
71175;DHT22;58876;51.994;4.472;2022-10-31T06:59:32;11.93;83.11
71175;DHT22;58876;51.994;4.472;2022-10-31T07:01:58;11.94;83.37
71175;DHT22;58876;51.994;4.472;2022-10-31T07:04:23;12.01;83.68
71175;DHT22;58876;51.994;4.472;2022-10-31T07:06:52;12.07;83.61
71175;DHT22;58876;51.994;4.472;2022-10-31T07:09:18;12.11;83.70
71175;DHT22;58876;51.994;4.472;2022-10-31T07:11:44;12.18;84.01
71175;DHT22;58876;51.994;4.472;2022-10-31T07:14:09;12.35;83.91
71175;DHT22;58876;51.994;4.472;2022-10-31T07:16:35;12.52;83.60
71175;DHT22;58876;51.994;4.472;2022-10-31T07:19:00;12.65;83.35
71175;DHT22;58876;51.994;4.472;2022-10-31T07:21:25;12.66;83.23
71175;DHT22;58876;51.994;4.472;2022-10-31T07:23:51;12.79;83.32
71175;DHT22;58876;51.994;4.472;2022-10-31T07:26:18;12.86;82.99
71175;DHT22;58876;51.994;4.472;2022-10-31T07:28:46;12.95;83.50
71175;DHT22;58876;51.994;4.472;2022-10-31T07:31:12;13.04;83.63
71175;DHT22;58876;51.994;4.472;2022-10-31T07:33:37;13.11;83.37
71175;DHT22;58876;51.994;4.472;2022-10-31T07:36:03;13.14;83.18
71175;DHT22;58876;51.994;4.472;2022-10-31T07:38:28;13.16;83.02
71175;DHT22;58876;51.994;4.472;2022-10-31T07:40:54;13.20;83.24
71175;DHT22;58876;51.994;4.472;2022-10-31T07:43:20;13.23;83.44
71175;DHT22;58876;51.994;4.472;2022-10-31T07:45:52;13.31;83.36
71175;DHT22;58876;51.994;4.472;2022-10-31T07:48:18;13.36;83.46
71175;DHT22;58876;51.994;4.472;2022-10-31T07:50:43;13.36;83.32
71175;DHT22;58876;51.994;4.472;2022-10-31T07:53:11;13.36;83.36
71175;DHT22;58876;51.994;4.472;2022-10-31T07:55:37;13.34;83.18
71175;DHT22;58876;51.994;4.472;2022-10-31T07:58:05;13.36;83.28
71175;DHT22;58876;51.994;4.472;2022-10-31T08:00:34;13.36;83.23
71175;DHT22;58876;51.994;4.472;2022-10-31T08:03:01;13.36;83.33
71175;DHT22;58876;51.994;4.472;2022-10-31T08:05:27;13.38;83.56
71175;DHT22;58876;51.994;4.472;2022-10-31T08:07:54;13.48;83.43
71175;DHT22;58876;51.994;4.472;2022-10-31T08:10:20;13.47;83.52
71175;DHT22;58876;51.994;4.472;2022-10-31T08:12:45;13.53;83.89
71175;DHT22;58876;51.994;4.472;2022-10-31T08:15:11;13.55;83.73
71175;DHT22;58876;51.994;4.472;2022-10-31T08:17:37;13.65;83.66
71175;DHT22;58876;51.994;4.472;2022-10-31T08:20:04;13.76;83.38
71175;DHT22;58876;51.994;4.472;2022-10-31T08:22:31;13.90;83.49
71175;DHT22;58876;51.994;4.472;2022-10-31T08:24:56;14.09;83.18
71175;DHT22;58876;51.994;4.472;2022-10-31T08:27:22;14.10;82.93
71175;DHT22;58876;51.994;4.472;2022-10-31T08:29:47;14.09;83.01
71175;DHT22;58876;51.994;4.472;2022-10-31T08:32:13;14.16;83.09
71175;DHT22;58876;51.994;4.472;2022-10-31T08:34:39;14.27;82.89
71175;DHT22;58876;51.994;4.472;2022-10-31T08:37:04;14.34;82.76
71175;DHT22;58876;51.994;4.472;2022-10-31T08:39:30;14.48;82.59
71175;DHT22;58876;51.994;4.472;2022-10-31T08:41:55;14.64;82.59
71175;DHT22;58876;51.994;4.472;2022-10-31T08:44:20;14.70;82.64
71175;DHT22;58876;51.994;4.472;2022-10-31T08:46:46;14.88;82.42
71175;DHT22;58876;51.994;4.472;2022-10-31T08:49:11;15.01;81.74
71175;DHT22;58876;51.994;4.472;2022-10-31T08:51:37;15.02;81.95
71175;DHT22;58876;51.994;4.472;2022-10-31T08:54:02;15.08;81.45
71175;DHT22;58876;51.994;4.472;2022-10-31T08:56:28;15.22;81.61
71175;DHT22;58876;51.994;4.472;2022-10-31T08:58:53;15.40;81.00
71175;DHT22;58876;51.994;4.472;2022-10-31T09:01:19;15.66;80.96
71175;DHT22;58876;51.994;4.472;2022-10-31T09:03:44;15.84;80.44
71175;DHT22;58876;51.994;4.472;2022-10-31T09:06:11;15.69;80.07
71175;DHT22;58876;51.994;4.472;2022-10-31T09:08:36;15.69;80.34
71175;DHT22;58876;51.994;4.472;2022-10-31T09:11:03;15.77;80.11
71175;DHT22;58876;51.994;4.472;2022-10-31T09:13:29;15.98;80.12
71175;DHT22;58876;51.994;4.472;2022-10-31T09:15:56;16.08;79.32
71175;DHT22;58876;51.994;4.472;2022-10-31T09:18:22;16.13;79.04
71175;DHT22;58876;51.994;4.472;2022-10-31T09:20:49;16.14;79.36
71175;DHT22;58876;51.994;4.472;2022-10-31T09:23:21;16.25;78.82
71175;DHT22;58876;51.994;4.472;2022-10-31T09:25:48;16.15;78.72
71175;DHT22;58876;51.994;4.472;2022-10-31T09:28:17;16.15;78.93
71175;DHT22;58876;51.994;4.472;2022-10-31T09:30:47;16.21;78.46
71175;DHT22;58876;51.994;4.472;2022-10-31T09:33:13;16.24;78.54
71175;DHT22;58876;51.994;4.472;2022-10-31T09:35:40;16.31;78.34
71175;DHT22;58876;51.994;4.472;2022-10-31T09:38:15;16.36;78.30
71175;DHT22;58876;51.994;4.472;2022-10-31T09:40:43;16.41;78.35
71175;DHT22;58876;51.994;4.472;2022-10-31T09:43:44;16.55;78.12
71175;DHT22;58876;51.994;4.472;2022-10-31T09:51:33;17.02;76.58
71175;DHT22;58876;51.994;4.472;2022-10-31T09:54:20;17.07;76.60
71175;DHT22;58876;51.994;4.472;2022-10-31T09:56:47;17.07;76.13
71175;DHT22;58876;51.994;4.472;2022-10-31T09:59:29;17.17;76.80
71175;DHT22;58876;51.994;4.472;2022-10-31T10:04:58;17.09;76.41
71175;DHT22;58876;51.994;4.472;2022-10-31T10:09:57;16.92;76.24
71175;DHT22;58876;51.994;4.472;2022-10-31T10:15:35;17.13;76.57
71175;DHT22;58876;51.994;4.472;2022-10-31T10:21:22;17.33;75.12
71175;DHT22;58876;51.994;4.472;2022-10-31T10:24:12;17.61;75.04
71175;DHT22;58876;51.994;4.472;2022-10-31T10:26:53;18.05;73.93
71175;DHT22;58876;51.994;4.472;2022-10-31T10:29:54;18.32;72.70
71175;DHT22;58876;51.994;4.472;2022-10-31T10:32:28;18.49;71.67
71175;DHT22;58876;51.994;4.472;2022-10-31T10:34:59;18.70;71.50
71175;DHT22;58876;51.994;4.472;2022-10-31T10:37:32;18.81;71.27
71175;DHT22;58876;51.994;4.472;2022-10-31T10:40:16;18.80;70.09
71175;DHT22;58876;51.994;4.472;2022-10-31T10:45:44;18.77;70.17
71175;DHT22;58876;51.994;4.472;2022-10-31T10:48:32;18.54;70.29
71175;DHT22;58876;51.994;4.472;2022-10-31T10:51:06;18.36;71.51
71175;DHT22;58876;51.994;4.472;2022-10-31T10:56:46;18.20;72.18
71175;DHT22;58876;51.994;4.472;2022-10-31T10:59:19;17.99;73.43
71175;DHT22;58876;51.994;4.472;2022-10-31T11:01:49;17.96;73.99
71175;DHT22;58876;51.994;4.472;2022-10-31T11:04:35;18.25;73.57
71175;DHT22;58876;51.994;4.472;2022-10-31T11:07:05;18.39;73.20
71175;DHT22;58876;51.994;4.472;2022-10-31T11:09:31;18.41;73.03
71175;DHT22;58876;51.994;4.472;2022-10-31T11:11:58;18.44;73.32
71175;DHT22;58876;51.994;4.472;2022-10-31T11:14:25;18.57;72.37
71175;DHT22;58876;51.994;4.472;2022-10-31T11:17:09;18.46;71.94
71175;DHT22;58876;51.994;4.472;2022-10-31T11:19:36;18.43;72.33
71175;DHT22;58876;51.994;4.472;2022-10-31T11:22:16;18.56;72.65
71175;DHT22;58876;51.994;4.472;2022-10-31T11:24:43;18.80;72.38
71175;DHT22;58876;51.994;4.472;2022-10-31T11:27:16;18.83;71.44
71175;DHT22;58876;51.994;4.472;2022-10-31T11:29:45;18.75;70.85
71175;DHT22;58876;51.994;4.472;2022-10-31T11:32:20;18.78;71.15
71175;DHT22;58876;51.994;4.472;2022-10-31T11:34:50;18.41;71.92
71175;DHT22;58876;51.994;4.472;2022-10-31T11:37:28;18.33;72.25
71175;DHT22;58876;51.994;4.472;2022-10-31T11:40:06;18.23;72.73
71175;DHT22;58876;51.994;4.472;2022-10-31T11:42:39;18.03;73.27
71175;DHT22;58876;51.994;4.472;2022-10-31T11:47:44;17.96;74.12
71175;DHT22;58876;51.994;4.472;2022-10-31T11:50:21;18.17;73.43
71175;DHT22;58876;51.994;4.472;2022-10-31T11:52:48;18.26;73.02
71175;DHT22;58876;51.994;4.472;2022-10-31T11:55:36;18.41;72.62
71175;DHT22;58876;51.994;4.472;2022-10-31T11:58:03;18.50;72.69
71175;DHT22;58876;51.994;4.472;2022-10-31T12:00:36;18.46;72.38
71175;DHT22;58876;51.994;4.472;2022-10-31T12:04:06;18.51;72.64
71175;DHT22;58876;51.994;4.472;2022-10-31T12:06:23;18.64;72.64
71175;DHT22;58876;51.994;4.472;2022-10-31T12:08:49;18.84;72.71
71175;DHT22;58876;51.994;4.472;2022-10-31T12:14:02;19.50;70.29
71175;DHT22;58876;51.994;4.472;2022-10-31T12:16:57;19.35;70.29
71175;DHT22;58876;51.994;4.472;2022-10-31T12:23:03;19.30;71.30
71175;DHT22;58876;51.994;4.472;2022-10-31T12:25:50;19.32;71.02
71175;DHT22;58876;51.994;4.472;2022-10-31T12:28:59;19.26;70.76
71175;DHT22;58876;51.994;4.472;2022-10-31T12:31:49;19.23;71.49
71175;DHT22;58876;51.994;4.472;2022-10-31T12:43:03;19.63;70.75
71175;DHT22;58876;51.994;4.472;2022-10-31T12:45:46;19.48;70.20
71175;DHT22;58876;51.994;4.472;2022-10-31T12:48:47;19.29;71.31
71175;DHT22;58876;51.994;4.472;2022-10-31T12:51:48;19.18;72.12
71175;DHT22;58876;51.994;4.472;2022-10-31T12:59:38;18.85;72.61
71175;DHT22;58876;51.994;4.472;2022-10-31T13:05:24;18.75;73.65
71175;DHT22;58876;51.994;4.472;2022-10-31T13:08:06;18.85;72.46
71175;DHT22;58876;51.994;4.472;2022-10-31T13:10:43;18.74;72.84
71175;DHT22;58876;51.994;4.472;2022-10-31T13:13:17;18.71;73.09
71175;DHT22;58876;51.994;4.472;2022-10-31T13:19:03;18.64;72.60
71175;DHT22;58876;51.994;4.472;2022-10-31T13:21:37;18.64;73.32
71175;DHT22;58876;51.994;4.472;2022-10-31T13:24:13;18.71;73.46
71175;DHT22;58876;51.994;4.472;2022-10-31T13:26:47;18.75;73.22
71175;DHT22;58876;51.994;4.472;2022-10-31T13:31:57;18.80;73.12
71175;DHT22;58876;51.994;4.472;2022-10-31T13:34:39;18.85;72.89
71175;DHT22;58876;51.994;4.472;2022-10-31T13:40:14;18.75;73.41
71175;DHT22;58876;51.994;4.472;2022-10-31T13:43:04;18.81;73.62
71175;DHT22;58876;51.994;4.472;2022-10-31T13:45:32;18.80;73.40
71175;DHT22;58876;51.994;4.472;2022-10-31T13:50:54;18.70;73.77
71175;DHT22;58876;51.994;4.472;2022-10-31T13:53:22;18.56;74.48
71175;DHT22;58876;51.994;4.472;2022-10-31T13:56:02;18.53;74.51
71175;DHT22;58876;51.994;4.472;2022-10-31T13:58:31;18.49;74.61
71175;DHT22;58876;51.994;4.472;2022-10-31T14:03:25;18.56;74.55
71175;DHT22;58876;51.994;4.472;2022-10-31T14:05:55;18.44;74.82
71175;DHT22;58876;51.994;4.472;2022-10-31T14:08:23;18.30;75.19
71175;DHT22;58876;51.994;4.472;2022-10-31T14:10:53;18.20;75.75
71175;DHT22;58876;51.994;4.472;2022-10-31T14:13:32;18.25;75.91
71175;DHT22;58876;51.994;4.472;2022-10-31T14:16:03;18.32;75.83
71175;DHT22;58876;51.994;4.472;2022-10-31T14:18:39;18.33;75.58
71175;DHT22;58876;51.994;4.472;2022-10-31T14:23:52;18.37;75.57
71175;DHT22;58876;51.994;4.472;2022-10-31T14:28:55;18.25;75.96
71175;DHT22;58876;51.994;4.472;2022-10-31T14:31:32;18.19;76.40
71175;DHT22;58876;51.994;4.472;2022-10-31T14:34:06;18.20;76.44
71175;DHT22;58876;51.994;4.472;2022-10-31T14:37:03;18.09;77.00
71175;DHT22;58876;51.994;4.472;2022-10-31T14:40:07;18.02;77.17
71175;DHT22;58876;51.994;4.472;2022-10-31T14:45:33;18.10;77.09
71175;DHT22;58876;51.994;4.472;2022-10-31T14:48:10;18.09;77.09
71175;DHT22;58876;51.994;4.472;2022-10-31T14:51:09;18.09;77.19
71175;DHT22;58876;51.994;4.472;2022-10-31T14:53:47;17.95;77.58
71175;DHT22;58876;51.994;4.472;2022-10-31T14:56:26;17.89;77.87
71175;DHT22;58876;51.994;4.472;2022-10-31T14:58:56;17.89;77.72
71175;DHT22;58876;51.994;4.472;2022-10-31T15:01:28;17.91;77.81
71175;DHT22;58876;51.994;4.472;2022-10-31T15:04:07;17.89;77.78
71175;DHT22;58876;51.994;4.472;2022-10-31T15:07:02;17.86;77.94
71175;DHT22;58876;51.994;4.472;2022-10-31T15:09:33;17.71;78.45
71175;DHT22;58876;51.994;4.472;2022-10-31T15:12:00;17.65;78.62
71175;DHT22;58876;51.994;4.472;2022-10-31T15:14:30;17.54;79.14
71175;DHT22;58876;51.994;4.472;2022-10-31T15:17:02;17.52;79.20
71175;DHT22;58876;51.994;4.472;2022-10-31T15:19:30;17.55;79.22
71175;DHT22;58876;51.994;4.472;2022-10-31T15:21:58;17.57;79.22
71175;DHT22;58876;51.994;4.472;2022-10-31T15:24:33;17.54;79.26
71175;DHT22;58876;51.994;4.472;2022-10-31T15:26:59;17.54;79.29
71175;DHT22;58876;51.994;4.472;2022-10-31T15:29:26;17.58;79.26
71175;DHT22;58876;51.994;4.472;2022-10-31T15:31:59;17.58;79.12
71175;DHT22;58876;51.994;4.472;2022-10-31T15:34:38;17.58;79.24
71175;DHT22;58876;51.994;4.472;2022-10-31T15:37:09;17.57;79.30
71175;DHT22;58876;51.994;4.472;2022-10-31T15:39:35;17.51;79.39
71175;DHT22;58876;51.994;4.472;2022-10-31T15:42:01;17.51;79.50
71175;DHT22;58876;51.994;4.472;2022-10-31T15:44:36;17.37;79.76
71175;DHT22;58876;51.994;4.472;2022-10-31T15:47:18;17.41;79.89
71175;DHT22;58876;51.994;4.472;2022-10-31T15:49:51;17.41;79.79
71175;DHT22;58876;51.994;4.472;2022-10-31T15:52:40;17.42;79.65
71175;DHT22;58876;51.994;4.472;2022-10-31T15:57:57;17.38;79.62
71175;DHT22;58876;51.994;4.472;2022-10-31T16:00:30;17.33;79.80
71175;DHT22;58876;51.994;4.472;2022-10-31T16:03:21;17.21;80.05
71175;DHT22;58876;51.994;4.472;2022-10-31T16:05:48;17.21;80.25
71175;DHT22;58876;51.994;4.472;2022-10-31T16:13:51;17.10;80.42
71175;DHT22;58876;51.994;4.472;2022-10-31T16:16:17;17.11;80.31
71175;DHT22;58876;51.994;4.472;2022-10-31T16:18:46;17.04;80.57
71175;DHT22;58876;51.994;4.472;2022-10-31T16:21:12;17.06;80.64
71175;DHT22;58876;51.994;4.472;2022-10-31T16:23:45;17.06;80.55
71175;DHT22;58876;51.994;4.472;2022-10-31T16:26:17;17.00;81.09
71175;DHT22;58876;51.994;4.472;2022-10-31T16:28:55;17.02;81.00
71175;DHT22;58876;51.994;4.472;2022-10-31T16:31:30;17.00;81.10
71175;DHT22;58876;51.994;4.472;2022-10-31T16:34:10;17.03;80.96
71175;DHT22;58876;51.994;4.472;2022-10-31T16:36:37;17.06;80.83
71175;DHT22;58876;51.994;4.472;2022-10-31T16:39:05;17.06;80.66
71175;DHT22;58876;51.994;4.472;2022-10-31T16:41:37;17.13;80.54
71175;DHT22;58876;51.994;4.472;2022-10-31T16:44:11;17.07;80.67
71175;DHT22;58876;51.994;4.472;2022-10-31T16:46:39;17.09;80.58
71175;DHT22;58876;51.994;4.472;2022-10-31T16:49:04;17.09;80.49
71175;DHT22;58876;51.994;4.472;2022-10-31T16:51:30;17.10;80.20
71175;DHT22;58876;51.994;4.472;2022-10-31T16:53:55;17.07;80.13
71175;DHT22;58876;51.994;4.472;2022-10-31T16:56:28;17.06;80.22
71175;DHT22;58876;51.994;4.472;2022-10-31T16:58:54;16.96;80.31
71175;DHT22;58876;51.994;4.472;2022-10-31T17:01:20;16.99;80.10
71175;DHT22;58876;51.994;4.472;2022-10-31T17:03:45;16.96;79.80
71175;DHT22;58876;51.994;4.472;2022-10-31T17:06:12;16.92;79.91
71175;DHT22;58876;51.994;4.472;2022-10-31T17:08:38;16.87;79.86
71175;DHT22;58876;51.994;4.472;2022-10-31T17:11:05;16.82;80.00
71175;DHT22;58876;51.994;4.472;2022-10-31T17:13:33;16.80;79.82
71175;DHT22;58876;51.994;4.472;2022-10-31T17:16:00;16.73;79.72
71175;DHT22;58876;51.994;4.472;2022-10-31T17:18:27;16.72;79.70
71175;DHT22;58876;51.994;4.472;2022-10-31T17:20:58;16.65;79.81
71175;DHT22;58876;51.994;4.472;2022-10-31T17:23:24;16.66;79.60
71175;DHT22;58876;51.994;4.472;2022-10-31T17:25:50;16.61;79.81
71175;DHT22;58876;51.994;4.472;2022-10-31T17:28:15;16.59;79.53
71175;DHT22;58876;51.994;4.472;2022-10-31T17:30:42;16.52;79.83
71175;DHT22;58876;51.994;4.472;2022-10-31T17:33:12;16.58;79.48
71175;DHT22;58876;51.994;4.472;2022-10-31T17:35:38;16.49;79.57
71175;DHT22;58876;51.994;4.472;2022-10-31T17:38:04;16.53;79.46
71175;DHT22;58876;51.994;4.472;2022-10-31T17:40:29;16.51;79.30
71175;DHT22;58876;51.994;4.472;2022-10-31T17:42:56;16.35;79.86
71175;DHT22;58876;51.994;4.472;2022-10-31T17:45:24;16.42;79.67